createdAt,value
2023-05-08T00:00:38.932Z,99675.59
2023-05-08T00:03:07.313Z,99670.56
2023-05-08T00:05:35.283Z,99669.72
2023-05-08T00:08:03.070Z,99665.25
2023-05-08T00:10:31.186Z,99665.94
2023-05-08T00:12:59.455Z,99661.56
2023-05-08T00:15:27.282Z,99670.59
2023-05-08T00:17:55.440Z,99667.50
2023-05-08T00:20:23.550Z,99668.09
2023-05-08T00:22:54.282Z,99664.72
2023-05-08T00:25:22.473Z,99670.56
2023-05-08T00:27:54.833Z,99667.97
2023-05-08T00:30:25.279Z,99674.44
2023-05-08T00:32:55.818Z,99673.41
2023-05-08T00:35:28.179Z,99671.78
2023-05-08T00:37:55.976Z,99666.28
2023-05-08T00:40:31.639Z,99673.37
2023-05-08T00:43:02.188Z,99681.25
2023-05-08T00:45:52.251Z,99678.38
2023-05-08T00:48:20.979Z,99679.03
2023-05-08T00:50:55.011Z,99682.44
2023-05-08T00:53:26.321Z,99682.78
2023-05-08T00:56:07.881Z,99682.22
2023-05-08T00:59:10.614Z,99685.69
2023-05-08T01:01:38.790Z,99682.84
2023-05-08T01:04:06.893Z,99691.22
2023-05-08T01:06:54.878Z,99692.81
2023-05-08T01:09:23.006Z,99691.50
2023-05-08T01:11:50.749Z,99697.97
2023-05-08T01:14:36.655Z,99697.25
2023-05-08T01:20:36.661Z,99693.38
2023-05-08T01:23:09.031Z,99703.16
2023-05-08T01:26:08.804Z,99709.91
2023-05-08T01:28:36.853Z,99717.53
2023-05-08T01:31:11.730Z,99718.44
2023-05-08T01:33:50.670Z,99719.06
2023-05-08T01:36:38.660Z,99725.16
2023-05-08T01:39:15.875Z,99722.94
2023-05-08T01:42:06.408Z,99718.59
2023-05-08T01:44:35.895Z,99717.44
2023-05-08T01:47:06.920Z,99725.44
2023-05-08T01:49:43.992Z,99730.19
2023-05-08T01:52:43.894Z,99721.84
2023-05-08T01:55:13.195Z,99732.56
2023-05-08T01:57:42.876Z,99729.38
2023-05-08T02:00:11.080Z,99732.34
2023-05-08T02:02:38.759Z,99733.66
2023-05-08T02:05:21.562Z,99733.44
2023-05-08T02:07:55.657Z,99733.09
2023-05-08T02:13:33.322Z,99737.84
2023-05-08T02:16:02.551Z,99742.75
2023-05-08T02:18:31.281Z,99742.16
2023-05-08T02:20:59.366Z,99737.56
2023-05-08T02:23:32.964Z,99748.38
2023-05-08T02:26:03.792Z,99747.78
2023-05-08T02:28:35.421Z,99743.53
2023-05-08T02:31:09.351Z,99747.59
2023-05-08T02:33:54.671Z,99747.06
2023-05-08T02:36:22.740Z,99740.19
2023-05-08T02:42:09.322Z,99742.78
2023-05-08T02:44:37.570Z,99745.84
2023-05-08T02:47:35.689Z,99748.56
2023-05-08T02:50:14.424Z,99749.59
2023-05-08T02:52:50.018Z,99746.16
2023-05-08T02:55:22.667Z,99756.47
2023-05-08T02:57:50.440Z,99755.44
2023-05-08T03:00:20.483Z,99754.03
2023-05-08T03:02:53.640Z,99750.37
2023-05-08T03:05:29.428Z,99754.03
2023-05-08T03:07:58.232Z,99755.25
2023-05-08T03:10:28.967Z,99750.16
2023-05-08T03:12:56.852Z,99755.53
2023-05-08T03:15:36.893Z,99759.69
2023-05-08T03:18:11.597Z,99756.03
2023-05-08T03:20:40.668Z,99760.03
2023-05-08T03:23:11.432Z,99764.81
2023-05-08T03:25:47.992Z,99751.63
2023-05-08T03:28:16.572Z,99760.44
2023-05-08T03:30:47.374Z,99757.63
2023-05-08T03:33:15.584Z,99756.41
2023-05-08T03:35:43.666Z,99760.62
2023-05-08T03:38:11.601Z,99762.22
2023-05-08T03:40:39.564Z,99761.66
2023-05-08T03:43:16.538Z,99764.13
2023-05-08T03:45:44.900Z,99762.94
2023-05-08T03:48:13.518Z,99771.63
2023-05-08T03:50:41.729Z,99770.81
2023-05-08T03:53:09.735Z,99772.19
2023-05-08T03:55:38.714Z,99764.75
2023-05-08T03:58:07.033Z,99765.34
2023-05-08T04:01:02.720Z,99771.00
2023-05-08T04:03:41.284Z,99776.03
2023-05-08T04:06:49.317Z,99775.16
2023-05-08T04:09:40.475Z,99772.19
2023-05-08T04:12:15.568Z,99774.59
2023-05-08T04:15:00.726Z,99778.53
2023-05-08T04:17:58.361Z,99781.06
2023-05-08T04:21:07.185Z,99788.06
2023-05-08T04:23:34.989Z,99785.59
2023-05-08T04:26:05.428Z,99798.88
2023-05-08T04:28:35.414Z,99798.81
2023-05-08T04:31:06.388Z,99786.09
2023-05-08T04:33:39.716Z,99794.75
2023-05-08T04:36:13.866Z,99801.06
2023-05-08T04:38:54.868Z,99796.84
2023-05-08T04:41:35.841Z,99812.47
2023-05-08T04:44:05.085Z,99807.38
2023-05-08T04:46:42.531Z,99812.63
2023-05-08T04:49:12.387Z,99813.53
2023-05-08T04:51:41.292Z,99812.69
2023-05-08T04:54:43.827Z,99818.78
2023-05-08T04:57:38.059Z,99829.19
2023-05-08T05:00:08.811Z,99832.66
2023-05-08T05:02:46.397Z,99833.53
2023-05-08T05:05:21.837Z,99826.59
2023-05-08T05:07:51.204Z,99832.66
2023-05-08T05:10:21.074Z,99836.09
2023-05-08T05:13:00.267Z,99842.19
2023-05-08T05:15:31.432Z,99836.06
2023-05-08T05:18:01.256Z,99834.34
2023-05-08T05:20:35.884Z,99831.78
2023-05-08T05:23:15.271Z,99840.34
2023-05-08T05:25:50.027Z,99842.00
2023-05-08T05:28:32.618Z,99840.37
2023-05-08T05:31:04.044Z,99845.59
2023-05-08T05:33:58.030Z,99845.50
2023-05-08T05:36:26.384Z,99850.75
2023-05-08T05:38:54.659Z,99844.69
2023-05-08T05:41:25.921Z,99850.66
2023-05-08T05:43:54.202Z,99849.84
2023-05-08T05:49:39.236Z,99856.63
2023-05-08T05:52:07.856Z,99860.94
2023-05-08T05:54:39.485Z,99864.31
2023-05-08T05:57:07.962Z,99870.28
2023-05-08T05:59:36.214Z,99869.13
2023-05-08T06:02:04.758Z,99854.97
2023-05-08T06:04:33.046Z,99865.69
2023-05-08T06:07:01.294Z,99867.31
2023-05-08T06:09:29.138Z,99867.31
2023-05-08T06:12:00.402Z,99866.13
2023-05-08T06:14:29.259Z,99860.88
2023-05-08T06:16:58.529Z,99863.66
2023-05-08T06:19:31.071Z,99864.00
2023-05-08T06:22:04.182Z,99865.88
2023-05-08T06:24:54.170Z,99871.75
2023-05-08T06:27:24.016Z,99877.31
2023-05-08T06:32:42.888Z,99873.75
2023-05-08T06:35:15.640Z,99871.56
2023-05-08T06:37:47.818Z,99870.53
2023-05-08T06:40:18.918Z,99871.94
2023-05-08T06:42:47.486Z,99878.84
2023-05-08T06:45:16.256Z,99879.06
2023-05-08T06:47:57.120Z,99875.59
2023-05-08T06:50:40.747Z,99877.34
2023-05-08T06:53:10.351Z,99883.22
2023-05-08T06:55:39.619Z,99882.28
2023-05-08T06:58:08.811Z,99880.19
2023-05-08T07:00:37.835Z,99883.59
2023-05-08T07:03:06.128Z,99892.94
2023-05-08T07:05:34.097Z,99884.44
2023-05-08T07:08:01.899Z,99885.38
2023-05-08T07:10:36.902Z,99886.84
2023-05-08T07:13:08.969Z,99894.00
2023-05-08T07:15:39.255Z,99893.31
2023-05-08T07:18:07.115Z,99895.00
2023-05-08T07:20:36.721Z,99892.19
2023-05-08T07:23:08.009Z,99897.97
2023-05-08T07:26:14.872Z,99895.06
2023-05-08T07:28:42.952Z,99894.28
2023-05-08T07:31:10.740Z,99895.37
2023-05-08T07:33:38.536Z,99890.31
2023-05-08T07:36:06.728Z,99890.56
2023-05-08T07:41:41.112Z,99897.28
2023-05-08T07:44:09.830Z,99900.97
2023-05-08T07:46:38.274Z,99896.94
2023-05-08T07:49:06.568Z,99902.03
2023-05-08T07:51:34.377Z,99895.72
2023-05-08T07:54:02.518Z,99903.00
2023-05-08T07:56:30.357Z,99899.53
2023-05-08T07:58:58.073Z,99895.78
2023-05-08T08:01:26.179Z,99904.88
2023-05-08T08:03:54.821Z,99896.53
2023-05-08T08:06:22.632Z,99904.91
2023-05-08T08:08:50.795Z,99893.56
2023-05-08T08:11:18.995Z,99896.09
2023-05-08T08:13:47.367Z,99893.25
2023-05-08T08:16:19.712Z,99889.47
2023-05-08T08:18:49.679Z,99883.62
2023-05-08T08:21:22.204Z,99882.28
2023-05-08T08:23:51.026Z,99890.00
2023-05-08T08:26:18.829Z,99888.09
2023-05-08T08:28:46.640Z,99887.13
2023-05-08T08:31:16.744Z,99887.19
2023-05-08T08:33:44.742Z,99887.03
2023-05-08T08:36:15.867Z,99879.50
2023-05-08T08:38:43.942Z,99883.12
2023-05-08T08:41:13.928Z,99882.44
2023-05-08T08:43:43.672Z,99888.78
2023-05-08T08:46:15.918Z,99887.97
2023-05-08T08:48:44.870Z,99885.63
2023-05-08T08:51:19.249Z,99888.25
2023-05-08T08:53:47.300Z,99887.47
2023-05-08T08:56:16.790Z,99883.06
2023-05-08T08:58:59.830Z,99883.03
2023-05-08T09:01:31.456Z,99890.66
2023-05-08T09:04:14.852Z,99884.94
2023-05-08T09:06:43.981Z,99885.53
2023-05-08T09:09:12.696Z,99886.19
2023-05-08T09:11:41.760Z,99884.56
2023-05-08T09:14:10.094Z,99883.53
2023-05-08T09:16:38.047Z,99878.16
2023-05-08T09:19:05.865Z,99888.09
2023-05-08T09:21:34.078Z,99877.25
2023-05-08T09:24:02.667Z,99882.75
2023-05-08T09:26:32.769Z,99884.13
2023-05-08T09:29:10.958Z,99886.28
2023-05-08T09:31:42.516Z,99879.56
2023-05-08T09:34:12.432Z,99872.69
2023-05-08T09:36:42.270Z,99880.63
2023-05-08T09:39:12.786Z,99879.63
2023-05-08T09:41:45.949Z,99885.06
2023-05-08T09:44:14.400Z,99887.16
2023-05-08T09:46:42.355Z,99882.09
2023-05-08T09:49:14.754Z,99880.97
2023-05-08T09:51:54.496Z,99868.72
2023-05-08T09:54:22.490Z,99873.75
2023-05-08T09:56:56.345Z,99874.00
2023-05-08T09:59:33.965Z,99859.06
2023-05-08T10:02:10.965Z,99863.94
2023-05-08T10:04:44.136Z,99873.84
2023-05-08T10:07:13.449Z,99868.53
2023-05-08T10:09:50.169Z,99859.16
2023-05-08T10:12:25.928Z,99866.00
2023-05-08T10:14:54.287Z,99859.75
2023-05-08T10:17:48.705Z,99867.81
2023-05-08T10:20:17.327Z,99855.03
2023-05-08T10:22:49.155Z,99856.87
2023-05-08T10:25:25.920Z,99852.91
2023-05-08T10:28:15.117Z,99857.00
2023-05-08T10:30:45.186Z,99842.94
2023-05-08T10:33:13.063Z,99848.22
2023-05-08T10:35:40.828Z,99844.81
2023-05-08T10:38:10.211Z,99847.13
2023-05-08T10:40:38.154Z,99838.72
2023-05-08T10:43:07.478Z,99837.59
2023-05-08T10:45:41.916Z,99841.69
2023-05-08T10:48:25.061Z,99831.69
2023-05-08T10:51:07.068Z,99837.12
2023-05-08T10:53:45.127Z,99830.12
2023-05-08T10:56:19.833Z,99831.09
2023-05-08T10:58:50.472Z,99833.13
2023-05-08T11:01:19.804Z,99826.19
2023-05-08T11:03:51.110Z,99826.03
2023-05-08T11:06:42.120Z,99833.25
2023-05-08T11:09:10.845Z,99824.94
2023-05-08T11:11:39.528Z,99821.78
2023-05-08T11:14:07.265Z,99824.47
2023-05-08T11:16:53.984Z,99824.66
2023-05-08T11:19:25.507Z,99817.13
2023-05-08T11:22:12.907Z,99817.87
2023-05-08T11:24:51.384Z,99815.59
2023-05-08T11:27:19.302Z,99808.78
2023-05-08T11:30:11.931Z,99811.22
2023-05-08T11:33:00.329Z,99815.50
2023-05-08T11:35:46.467Z,99807.16
2023-05-08T11:38:41.214Z,99813.47
2023-05-08T11:41:22.401Z,99810.16
2023-05-08T11:44:06.137Z,99802.63
2023-05-08T11:46:45.357Z,99792.38
2023-05-08T11:49:18.394Z,99803.87
2023-05-08T11:51:50.837Z,99800.34
2023-05-08T11:54:19.281Z,99806.44
2023-05-08T11:56:50.897Z,99803.81
2023-05-08T11:59:44.229Z,99806.66
2023-05-08T12:02:17.270Z,99804.59
2023-05-08T12:04:46.295Z,99805.63
2023-05-08T12:07:23.059Z,99808.22
2023-05-08T12:09:51.800Z,99808.22
2023-05-08T12:12:19.546Z,99805.38
2023-05-08T12:14:53.823Z,99807.16
2023-05-08T12:17:22.440Z,99801.59
2023-05-08T12:20:03.137Z,99796.97
2023-05-08T12:22:43.691Z,99789.75
2023-05-08T12:25:31.982Z,99793.56
2023-05-08T12:30:58.456Z,99797.72
2023-05-08T12:33:29.797Z,99791.25
2023-05-08T12:36:01.725Z,99790.81
2023-05-08T12:38:30.299Z,99794.75
2023-05-08T12:41:04.540Z,99796.78
2023-05-08T12:43:38.934Z,99781.28
2023-05-08T12:46:06.829Z,99793.28
2023-05-08T12:48:35.130Z,99794.22
2023-05-08T12:51:04.195Z,99797.13
2023-05-08T12:53:32.709Z,99797.66
2023-05-08T12:56:03.288Z,99791.75
2023-05-08T12:58:33.667Z,99801.06
2023-05-08T13:01:12.441Z,99797.63
2023-05-08T13:03:56.074Z,99795.16
2023-05-08T13:07:20.434Z,99800.19
2023-05-08T13:09:57.430Z,99797.81
2023-05-08T13:12:28.511Z,99796.41
2023-05-08T13:15:03.430Z,99793.81
2023-05-08T13:17:46.617Z,99789.22
2023-05-08T13:21:00.044Z,99783.09
2023-05-08T13:23:28.278Z,99791.16
2023-05-08T13:26:04.711Z,99792.47
2023-05-08T13:28:34.176Z,99800.63
2023-05-08T13:31:01.908Z,99792.69
2023-05-08T13:33:29.700Z,99802.06
2023-05-08T13:36:06.057Z,99790.56
2023-05-08T13:38:34.971Z,99787.13
2023-05-08T13:41:03.153Z,99783.56
2023-05-08T13:43:30.860Z,99786.13
2023-05-08T13:45:58.640Z,99781.63
2023-05-08T13:48:27.316Z,99786.09
2023-05-08T13:50:56.607Z,99784.25
2023-05-08T13:53:24.342Z,99776.91
2023-05-08T13:55:52.908Z,99783.47
2023-05-08T13:58:23.372Z,99787.84
2023-05-08T14:00:51.272Z,99784.44
2023-05-08T14:03:19.650Z,99785.28
2023-05-08T14:05:47.445Z,99788.00
2023-05-08T14:08:23.961Z,99787.94
2023-05-08T14:10:58.141Z,99798.09
2023-05-08T14:13:26.023Z,99784.47
2023-05-08T14:15:54.206Z,99794.16
2023-05-08T14:18:26.124Z,99786.00
2023-05-08T14:20:57.385Z,99787.84
2023-05-08T14:23:26.009Z,99797.69
2023-05-08T14:25:58.571Z,99794.38
2023-05-08T14:28:27.215Z,99797.09
2023-05-08T14:30:55.009Z,99797.97
2023-05-08T14:33:23.361Z,99804.03
2023-05-08T14:36:00.351Z,99798.59
2023-05-08T14:38:28.181Z,99812.44
2023-05-08T14:40:56.955Z,99802.13
2023-05-08T14:43:25.317Z,99809.44
2023-05-08T14:45:59.366Z,99803.72
2023-05-08T14:48:27.871Z,99816.50
2023-05-08T14:50:58.258Z,99807.81
2023-05-08T14:53:26.287Z,99811.06
2023-05-08T14:56:04.163Z,99804.97
2023-05-08T14:58:32.082Z,99803.59
2023-05-08T15:01:00.831Z,99807.25
2023-05-08T15:03:29.227Z,99808.81
2023-05-08T15:05:58.435Z,99801.00
2023-05-08T15:08:26.659Z,99809.87
2023-05-08T15:10:55.802Z,99804.56
2023-05-08T15:13:23.594Z,99808.81
2023-05-08T15:15:52.022Z,99813.19
2023-05-08T15:18:28.663Z,99813.06
2023-05-08T15:20:58.232Z,99805.38
2023-05-08T15:23:26.657Z,99808.81
2023-05-08T15:25:55.696Z,99808.63
2023-05-08T15:28:41.570Z,99807.31
2023-05-08T15:31:11.512Z,99809.75
2023-05-08T15:33:45.060Z,99813.53
2023-05-08T15:36:14.114Z,99817.50
2023-05-08T15:38:42.679Z,99806.47
2023-05-08T15:41:15.094Z,99820.94
2023-05-08T15:43:45.570Z,99815.69
2023-05-08T15:46:15.813Z,99811.50
2023-05-08T15:48:44.045Z,99813.59
2023-05-08T15:51:12.045Z,99807.94
2023-05-08T15:53:39.701Z,99802.56
2023-05-08T15:56:08.055Z,99807.12
2023-05-08T15:58:39.160Z,99807.72
2023-05-08T16:01:07.337Z,99802.63
2023-05-08T16:03:35.848Z,99796.47
2023-05-08T16:06:03.739Z,99801.50
2023-05-08T16:08:31.830Z,99800.03
2023-05-08T16:11:00.064Z,99799.69
2023-05-08T16:13:33.341Z,99791.25
2023-05-08T16:16:05.468Z,99795.97
2023-05-08T16:18:36.421Z,99795.69
2023-05-08T16:21:10.941Z,99798.09
2023-05-08T16:23:40.572Z,99794.16
2023-05-08T16:26:08.713Z,99801.50
2023-05-08T16:28:36.391Z,99791.41
2023-05-08T16:31:05.237Z,99806.09
2023-05-08T16:33:33.505Z,99797.47
2023-05-08T16:36:01.359Z,99805.09
2023-05-08T16:38:29.194Z,99798.78
2023-05-08T16:41:04.256Z,99813.38
2023-05-08T16:43:32.157Z,99806.72
2023-05-08T16:46:00.397Z,99812.97
2023-05-08T16:48:29.241Z,99818.78
2023-05-08T16:50:57.378Z,99820.72
2023-05-08T16:53:27.612Z,99822.59
2023-05-08T16:55:55.605Z,99830.50
2023-05-08T16:58:23.426Z,99832.41
2023-05-08T17:00:51.544Z,99839.00
2023-05-08T17:03:19.456Z,99846.34
2023-05-08T17:05:48.454Z,99846.00
2023-05-08T17:08:16.706Z,99850.31
2023-05-08T17:10:44.551Z,99857.16
2023-05-08T17:13:12.978Z,99862.47
2023-05-08T17:15:41.411Z,99862.84
2023-05-08T17:18:09.193Z,99863.78
2023-05-08T17:20:41.140Z,99878.13
2023-05-08T17:23:27.741Z,99874.88
2023-05-08T17:25:56.740Z,99879.69
2023-05-08T17:28:24.568Z,99881.41
2023-05-08T17:30:57.698Z,99899.66
2023-05-08T17:33:28.602Z,99898.44
2023-05-08T17:35:56.487Z,99895.88
2023-05-08T17:38:24.393Z,99897.66
2023-05-08T17:40:52.583Z,99905.78
2023-05-08T17:43:20.959Z,99908.38
2023-05-08T17:45:50.830Z,99919.47
2023-05-08T17:48:19.011Z,99917.66
2023-05-08T17:50:47.180Z,99925.06
2023-05-08T17:53:16.254Z,99929.81
2023-05-08T17:55:44.641Z,99936.25
2023-05-08T17:58:13.263Z,99928.75
2023-05-08T18:00:41.231Z,99947.37
2023-05-08T18:03:09.901Z,99941.44
2023-05-08T18:05:39.099Z,99947.69
2023-05-08T18:08:06.920Z,99944.94
2023-05-08T18:10:35.612Z,99943.84
2023-05-08T18:13:04.978Z,99955.87
2023-05-08T18:15:36.357Z,99951.22
2023-05-08T18:18:04.610Z,99959.06
2023-05-08T18:20:32.556Z,99963.75
2023-05-08T18:23:00.263Z,99965.16
2023-05-08T18:25:28.399Z,99980.09
2023-05-08T18:28:03.343Z,99980.41
2023-05-08T18:30:32.224Z,99989.69
2023-05-08T18:33:02.759Z,99983.09
2023-05-08T18:35:32.250Z,99996.22
2023-05-08T18:38:01.124Z,100005.97
2023-05-08T18:40:29.610Z,100001.66
2023-05-08T18:42:58.310Z,100009.56
2023-05-08T18:45:27.550Z,100006.69
2023-05-08T18:47:57.881Z,100015.94
2023-05-08T18:50:26.095Z,100019.03
2023-05-08T18:52:53.975Z,100026.19
2023-05-08T18:55:21.969Z,100041.28
2023-05-08T19:00:39.327Z,100027.81
2023-05-08T19:03:07.623Z,100030.81
2023-05-08T19:05:35.507Z,100031.84
2023-05-08T19:10:50.991Z,100039.34
2023-05-08T19:13:26.462Z,100046.53
2023-05-08T19:16:02.501Z,100049.31
2023-05-08T19:18:31.531Z,100052.84
2023-05-08T19:21:00.411Z,100050.28
2023-05-08T19:23:28.172Z,100056.56
2023-05-08T19:25:55.861Z,100051.94
2023-05-08T19:28:24.000Z,100066.44
2023-05-08T19:30:51.702Z,100068.03
2023-05-08T19:33:21.024Z,100064.63
2023-05-08T19:35:49.182Z,100065.16
2023-05-08T19:38:17.536Z,100074.03
2023-05-08T19:40:57.475Z,100060.84
2023-05-08T19:43:30.590Z,100077.44
2023-05-08T19:46:01.678Z,100077.75
2023-05-08T19:48:29.760Z,100075.97
2023-05-08T19:50:57.550Z,100067.87
2023-05-08T19:53:30.809Z,100070.75
2023-05-08T19:55:58.526Z,100073.41
2023-05-08T19:58:26.388Z,100075.84
2023-05-08T20:00:54.408Z,100074.44
2023-05-08T20:03:23.205Z,100076.06
2023-05-08T20:05:51.448Z,100069.97
2023-05-08T20:08:19.232Z,100075.34
2023-05-08T20:10:49.416Z,100072.75
2023-05-08T20:13:17.634Z,100070.31
2023-05-08T20:15:45.632Z,100071.97
2023-05-08T20:18:13.897Z,100070.97
2023-05-08T20:20:41.625Z,100074.50
2023-05-08T20:23:09.400Z,100071.19
2023-05-08T20:25:46.675Z,100070.25
2023-05-08T20:28:16.417Z,100071.16
2023-05-08T20:30:44.584Z,100072.84
2023-05-08T20:33:13.638Z,100074.66
2023-05-08T20:35:45.951Z,100074.72
2023-05-08T20:38:16.678Z,100070.38
2023-05-08T20:41:05.196Z,100069.56
2023-05-08T20:43:35.861Z,100071.13
2023-05-08T20:46:16.470Z,100069.50
2023-05-08T20:48:45.731Z,100070.41
2023-05-08T20:51:17.727Z,100071.25
2023-05-08T20:53:45.980Z,100073.81
2023-05-08T20:56:19.155Z,100079.03
2023-05-08T20:58:49.900Z,100072.19
2023-05-08T21:01:20.715Z,100071.28
2023-05-08T21:04:05.734Z,100072.97
2023-05-08T21:06:36.000Z,100063.34
2023-05-08T21:09:07.060Z,100066.84
2023-05-08T21:11:35.485Z,100065.03
2023-05-08T21:14:03.331Z,100062.59
2023-05-08T21:16:31.599Z,100062.47
2023-05-08T21:19:14.417Z,100068.50
2023-05-08T21:21:49.753Z,100060.91
2023-05-08T21:24:46.278Z,100059.06
2023-05-08T21:27:14.942Z,100058.22
2023-05-08T21:29:42.604Z,100053.97
2023-05-08T21:32:10.571Z,100054.81
2023-05-08T21:34:38.793Z,100055.66
2023-05-08T21:37:06.532Z,100057.41
2023-05-08T21:39:34.244Z,100049.59
2023-05-08T21:42:03.702Z,100061.63
2023-05-08T21:44:36.243Z,100056.31
2023-05-08T21:47:04.476Z,100056.56
2023-05-08T21:49:32.126Z,100056.56
2023-05-08T21:51:59.814Z,100059.16
2023-05-08T21:54:27.944Z,100049.63
2023-05-08T21:56:55.688Z,100056.56
2023-05-08T21:59:29.449Z,100041.78
2023-05-08T22:01:57.298Z,100046.12
2023-05-08T22:04:31.100Z,100043.50
2023-05-08T22:06:58.823Z,100044.31
2023-05-08T22:09:26.605Z,100047.88
2023-05-08T22:11:54.825Z,100040.84
2023-05-08T22:14:22.524Z,100047.78
2023-05-08T22:16:50.351Z,100047.81
2023-05-08T22:19:22.965Z,100042.56
2023-05-08T22:21:50.735Z,100050.34
2023-05-08T22:24:30.023Z,100039.81
2023-05-08T22:26:57.816Z,100044.19
2023-05-08T22:29:25.501Z,100039.03
2023-05-08T22:31:55.946Z,100041.66
2023-05-08T22:34:27.431Z,100032.12
2023-05-08T22:36:58.111Z,100037.25
2023-05-08T22:39:26.500Z,100039.12
2023-05-08T22:41:54.555Z,100049.22
2023-05-08T22:44:25.604Z,100047.78
2023-05-08T22:46:53.700Z,100041.50
2023-05-08T22:49:27.470Z,100040.72
2023-05-08T22:51:55.679Z,100040.66
2023-05-08T22:54:23.464Z,100042.34
2023-05-08T22:56:51.625Z,100051.03
2023-05-08T22:59:19.295Z,100054.53
2023-05-08T23:01:47.530Z,100045.84
2023-05-08T23:04:35.710Z,100034.59
2023-05-08T23:07:23.469Z,100044.88
2023-05-08T23:09:51.593Z,100051.06
2023-05-08T23:12:19.945Z,100039.78
2023-05-08T23:14:47.768Z,100045.00
2023-05-08T23:17:15.865Z,100039.12
2023-05-08T23:19:43.656Z,100040.03
2023-05-08T23:22:12.158Z,100039.00
2023-05-08T23:25:00.269Z,100047.53
2023-05-08T23:27:28.012Z,100048.34
2023-05-08T23:29:56.468Z,100043.97
2023-05-08T23:32:24.523Z,100042.06
2023-05-08T23:34:52.384Z,100040.28
2023-05-08T23:37:20.112Z,100046.12
2023-05-08T23:39:48.276Z,100044.56
2023-05-08T23:42:16.185Z,100045.00
2023-05-08T23:44:43.949Z,100044.81
2023-05-08T23:47:12.077Z,100037.78
2023-05-08T23:49:39.872Z,100033.56
2023-05-08T23:52:08.699Z,100027.91
2023-05-08T23:54:36.791Z,100030.66
2023-05-08T23:57:04.622Z,100030.81
2023-05-08T23:59:32.393Z,100028.88
